sensor_id;sensor_type;location;lat;lon;timestamp;P1;durP1;ratioP1;P2;durP2;ratioP2
83684;SDS011;73666;51.304;5.776;2024-03-23T00:55:23;6.40;;;1.58;;
83684;SDS011;73666;51.304;5.776;2024-03-23T01:00:24;5.78;;;1.80;;
83684;SDS011;73666;51.304;5.776;2024-03-23T01:05:24;8.93;;;2.08;;
83684;SDS011;73666;51.304;5.776;2024-03-23T01:10:25;4.70;;;2.60;;
83684;SDS011;73666;51.304;5.776;2024-03-23T01:15:26;6.50;;;2.40;;
83684;SDS011;73666;51.304;5.776;2024-03-23T01:20:26;5.53;;;2.00;;
83684;SDS011;73666;51.304;5.776;2024-03-23T01:25:27;7.63;;;2.60;;
83684;SDS011;73666;51.304;5.776;2024-03-23T01:30:28;7.28;;;2.22;;
83684;SDS011;73666;51.304;5.776;2024-03-23T01:35:29;4.93;;;1.23;;
83684;SDS011;73666;51.304;5.776;2024-03-23T01:40:29;7.15;;;1.60;;
83684;SDS011;73666;51.304;5.776;2024-03-23T01:45:33;5.35;;;2.20;;
83684;SDS011;73666;51.304;5.776;2024-03-23T01:50:35;6.20;;;1.67;;
83684;SDS011;73666;51.304;5.776;2024-03-23T01:55:36;4.70;;;1.70;;
83684;SDS011;73666;51.304;5.776;2024-03-23T02:00:37;7.82;;;2.15;;
83684;SDS011;73666;51.304;5.776;2024-03-23T02:05:37;8.82;;;2.10;;
83684;SDS011;73666;51.304;5.776;2024-03-23T02:10:38;7.07;;;1.85;;
83684;SDS011;73666;51.304;5.776;2024-03-23T02:15:39;5.43;;;1.45;;
83684;SDS011;73666;51.304;5.776;2024-03-23T02:20:39;9.02;;;1.98;;
83684;SDS011;73666;51.304;5.776;2024-03-23T02:25:40;5.55;;;1.92;;
83684;SDS011;73666;51.304;5.776;2024-03-23T02:30:41;8.40;;;1.58;;
83684;SDS011;73666;51.304;5.776;2024-03-23T02:35:43;5.63;;;1.90;;
83684;SDS011;73666;51.304;5.776;2024-03-23T02:40:45;9.30;;;1.70;;
83684;SDS011;73666;51.304;5.776;2024-03-23T02:45:45;6.18;;;2.30;;
83684;SDS011;73666;51.304;5.776;2024-03-23T02:50:46;9.20;;;2.63;;
83684;SDS011;73666;51.304;5.776;2024-03-23T02:55:47;4.50;;;2.00;;
83684;SDS011;73666;51.304;5.776;2024-03-23T03:00:48;5.57;;;1.92;;
83684;SDS011;73666;51.304;5.776;2024-03-23T03:05:54;7.20;;;2.10;;
83684;SDS011;73666;51.304;5.776;2024-03-23T03:10:55;5.63;;;2.20;;
83684;SDS011;73666;51.304;5.776;2024-03-23T03:15:56;5.78;;;2.55;;
83684;SDS011;73666;51.304;5.776;2024-03-23T03:25:59;5.45;;;1.98;;
83684;SDS011;73666;51.304;5.776;2024-03-23T03:31:00;7.63;;;2.42;;
83684;SDS011;73666;51.304;5.776;2024-03-23T03:36:01;5.95;;;2.30;;
83684;SDS011;73666;51.304;5.776;2024-03-23T03:41:02;2.65;;;1.80;;
83684;SDS011;73666;51.304;5.776;2024-03-23T03:46:03;6.70;;;1.70;;
83684;SDS011;73666;51.304;5.776;2024-03-23T03:51:04;5.72;;;2.20;;
83684;SDS011;73666;51.304;5.776;2024-03-23T03:56:04;6.35;;;2.30;;
83684;SDS011;73666;51.304;5.776;2024-03-23T04:01:05;6.00;;;1.92;;
83684;SDS011;73666;51.304;5.776;2024-03-23T04:06:06;5.28;;;1.77;;
83684;SDS011;73666;51.304;5.776;2024-03-23T04:11:07;7.32;;;2.67;;
83684;SDS011;73666;51.304;5.776;2024-03-23T04:16:07;8.40;;;2.10;;
83684;SDS011;73666;51.304;5.776;2024-03-23T04:21:10;6.88;;;2.63;;
83684;SDS011;73666;51.304;5.776;2024-03-23T04:26:11;6.65;;;2.33;;
83684;SDS011;73666;51.304;5.776;2024-03-23T04:31:11;8.82;;;2.42;;
83684;SDS011;73666;51.304;5.776;2024-03-23T04:36:12;10.82;;;2.28;;
83684;SDS011;73666;51.304;5.776;2024-03-23T04:41:13;8.27;;;2.88;;
83684;SDS011;73666;51.304;5.776;2024-03-23T04:46:14;7.05;;;2.97;;
83684;SDS011;73666;51.304;5.776;2024-03-23T04:51:22;7.93;;;2.72;;
83684;SDS011;73666;51.304;5.776;2024-03-23T04:56:23;7.03;;;2.75;;
83684;SDS011;73666;51.304;5.776;2024-03-23T05:01:24;10.27;;;3.05;;
83684;SDS011;73666;51.304;5.776;2024-03-23T05:06:25;6.32;;;2.70;;
83684;SDS011;73666;51.304;5.776;2024-03-23T05:11:26;9.00;;;3.08;;
83684;SDS011;73666;51.304;5.776;2024-03-23T05:16:26;13.35;;;4.53;;
83684;SDS011;73666;51.304;5.776;2024-03-23T05:21:28;13.50;;;4.38;;
83684;SDS011;73666;51.304;5.776;2024-03-23T05:26:29;7.82;;;3.88;;
83684;SDS011;73666;51.304;5.776;2024-03-23T05:31:30;6.22;;;3.42;;
83684;SDS011;73666;51.304;5.776;2024-03-23T05:36:31;10.18;;;4.07;;
83684;SDS011;73666;51.304;5.776;2024-03-23T05:41:32;7.97;;;3.42;;
83684;SDS011;73666;51.304;5.776;2024-03-23T05:46:35;11.68;;;3.42;;
83684;SDS011;73666;51.304;5.776;2024-03-23T05:51:36;12.95;;;3.67;;
83684;SDS011;73666;51.304;5.776;2024-03-23T05:56:37;10.63;;;3.33;;
83684;SDS011;73666;51.304;5.776;2024-03-23T06:01:38;10.30;;;3.97;;
83684;SDS011;73666;51.304;5.776;2024-03-23T06:06:39;8.25;;;3.75;;
83684;SDS011;73666;51.304;5.776;2024-03-23T06:11:40;6.63;;;3.33;;
83684;SDS011;73666;51.304;5.776;2024-03-23T06:16:40;11.52;;;3.72;;
83684;SDS011;73666;51.304;5.776;2024-03-23T06:21:44;6.88;;;3.47;;
83684;SDS011;73666;51.304;5.776;2024-03-23T06:26:45;10.02;;;3.72;;
83684;SDS011;73666;51.304;5.776;2024-03-23T06:31:52;9.23;;;3.83;;
83684;SDS011;73666;51.304;5.776;2024-03-23T06:36:55;9.77;;;3.92;;
83684;SDS011;73666;51.304;5.776;2024-03-23T06:41:56;9.70;;;3.40;;
83684;SDS011;73666;51.304;5.776;2024-03-23T06:46:57;6.53;;;3.83;;
83684;SDS011;73666;51.304;5.776;2024-03-23T06:51:58;8.50;;;3.50;;
83684;SDS011;73666;51.304;5.776;2024-03-23T06:56:58;7.38;;;3.72;;
83684;SDS011;73666;51.304;5.776;2024-03-23T07:02:00;6.60;;;3.17;;
83684;SDS011;73666;51.304;5.776;2024-03-23T07:07:01;6.38;;;2.90;;
83684;SDS011;73666;51.304;5.776;2024-03-23T07:12:02;6.15;;;2.95;;
83684;SDS011;73666;51.304;5.776;2024-03-23T07:17:03;6.47;;;3.00;;
83684;SDS011;73666;51.304;5.776;2024-03-23T07:22:03;5.95;;;2.00;;
83684;SDS011;73666;51.304;5.776;2024-03-23T07:27:04;4.95;;;2.00;;
83684;SDS011;73666;51.304;5.776;2024-03-23T07:32:05;8.85;;;1.58;;
83684;SDS011;73666;51.304;5.776;2024-03-23T07:37:06;8.45;;;1.80;;
83684;SDS011;73666;51.304;5.776;2024-03-23T07:42:06;3.47;;;1.77;;
83684;SDS011;73666;51.304;5.776;2024-03-23T07:47:07;4.68;;;1.60;;
83684;SDS011;73666;51.304;5.776;2024-03-23T07:52:08;6.53;;;1.65;;
83684;SDS011;73666;51.304;5.776;2024-03-23T07:57:09;3.38;;;1.25;;
83684;SDS011;73666;51.304;5.776;2024-03-23T08:02:09;7.60;;;1.77;;
83684;SDS011;73666;51.304;5.776;2024-03-23T08:07:11;4.50;;;1.50;;
83684;SDS011;73666;51.304;5.776;2024-03-23T08:12:12;9.73;;;1.63;;
83684;SDS011;73666;51.304;5.776;2024-03-23T08:17:13;6.53;;;1.73;;
83684;SDS011;73666;51.304;5.776;2024-03-23T08:22:13;7.82;;;2.08;;
83684;SDS011;73666;51.304;5.776;2024-03-23T08:27:14;3.13;;;1.67;;
83684;SDS011;73666;51.304;5.776;2024-03-23T08:32:18;3.63;;;1.67;;
83684;SDS011;73666;51.304;5.776;2024-03-23T08:37:18;5.55;;;1.90;;
83684;SDS011;73666;51.304;5.776;2024-03-23T08:42:19;6.97;;;1.42;;
83684;SDS011;73666;51.304;5.776;2024-03-23T08:47:20;4.85;;;1.52;;
83684;SDS011;73666;51.304;5.776;2024-03-23T08:52:21;5.00;;;1.20;;
83684;SDS011;73666;51.304;5.776;2024-03-23T08:57:23;9.55;;;1.90;;
83684;SDS011;73666;51.304;5.776;2024-03-23T09:02:24;4.38;;;1.20;;
83684;SDS011;73666;51.304;5.776;2024-03-23T09:07:24;3.58;;;1.25;;
83684;SDS011;73666;51.304;5.776;2024-03-23T09:12:25;3.35;;;1.30;;
83684;SDS011;73666;51.304;5.776;2024-03-23T09:17:26;4.38;;;1.23;;
83684;SDS011;73666;51.304;5.776;2024-03-23T09:22:27;5.38;;;0.90;;
83684;SDS011;73666;51.304;5.776;2024-03-23T09:27:28;2.72;;;1.00;;
83684;SDS011;73666;51.304;5.776;2024-03-23T09:32:28;3.53;;;0.93;;
83684;SDS011;73666;51.304;5.776;2024-03-23T09:37:29;5.75;;;0.70;;
83684;SDS011;73666;51.304;5.776;2024-03-23T09:42:30;3.88;;;0.63;;
83684;SDS011;73666;51.304;5.776;2024-03-23T09:47:30;1.25;;;0.65;;
83684;SDS011;73666;51.304;5.776;2024-03-23T09:52:32;1.17;;;0.90;;
83684;SDS011;73666;51.304;5.776;2024-03-23T09:57:33;5.18;;;1.30;;
83684;SDS011;73666;51.304;5.776;2024-03-23T10:02:34;4.07;;;1.70;;
83684;SDS011;73666;51.304;5.776;2024-03-23T10:07:35;2.33;;;1.08;;
83684;SDS011;73666;51.304;5.776;2024-03-23T10:12:36;4.45;;;1.88;;
83684;SDS011;73666;51.304;5.776;2024-03-23T10:17:47;2.35;;;1.23;;
83684;SDS011;73666;51.304;5.776;2024-03-23T10:22:48;5.20;;;1.70;;
83684;SDS011;73666;51.304;5.776;2024-03-23T10:28:01;3.92;;;1.35;;
83684;SDS011;73666;51.304;5.776;2024-03-23T10:33:08;3.83;;;1.52;;
83684;SDS011;73666;51.304;5.776;2024-03-23T10:38:13;5.72;;;1.48;;
83684;SDS011;73666;51.304;5.776;2024-03-23T10:43:14;7.28;;;1.65;;
83684;SDS011;73666;51.304;5.776;2024-03-23T10:48:16;4.68;;;1.35;;
83684;SDS011;73666;51.304;5.776;2024-03-23T10:53:17;1.20;;;0.70;;
83684;SDS011;73666;51.304;5.776;2024-03-23T10:58:20;3.35;;;0.57;;
83684;SDS011;73666;51.304;5.776;2024-03-23T11:03:29;4.30;;;1.10;;
83684;SDS011;73666;51.304;5.776;2024-03-23T11:08:37;3.40;;;1.00;;
83684;SDS011;73666;51.304;5.776;2024-03-23T11:13:39;2.13;;;0.73;;
83684;SDS011;73666;51.304;5.776;2024-03-23T11:18:40;3.15;;;0.80;;
83684;SDS011;73666;51.304;5.776;2024-03-23T11:23:42;4.72;;;0.90;;
83684;SDS011;73666;51.304;5.776;2024-03-23T11:28:42;4.70;;;1.08;;
83684;SDS011;73666;51.304;5.776;2024-03-23T11:33:43;3.28;;;1.50;;
83684;SDS011;73666;51.304;5.776;2024-03-23T11:38:44;4.97;;;1.50;;
83684;SDS011;73666;51.304;5.776;2024-03-23T11:43:46;3.78;;;1.50;;
83684;SDS011;73666;51.304;5.776;2024-03-23T11:48:50;4.53;;;1.20;;
83684;SDS011;73666;51.304;5.776;2024-03-23T11:53:51;4.32;;;1.15;;
83684;SDS011;73666;51.304;5.776;2024-03-23T11:58:52;5.20;;;1.85;;
83684;SDS011;73666;51.304;5.776;2024-03-23T12:03:53;4.15;;;1.13;;
83684;SDS011;73666;51.304;5.776;2024-03-23T12:08:54;0.85;;;0.65;;
83684;SDS011;73666;51.304;5.776;2024-03-23T12:14:06;1.92;;;0.30;;
83684;SDS011;73666;51.304;5.776;2024-03-23T12:19:07;1.27;;;0.60;;
83684;SDS011;73666;51.304;5.776;2024-03-23T12:24:08;2.55;;;0.52;;
83684;SDS011;73666;51.304;5.776;2024-03-23T12:29:09;2.05;;;0.80;;
83684;SDS011;73666;51.304;5.776;2024-03-23T12:34:10;1.75;;;0.32;;
83684;SDS011;73666;51.304;5.776;2024-03-23T12:39:10;1.20;;;0.40;;
83684;SDS011;73666;51.304;5.776;2024-03-23T12:44:11;0.52;;;0.50;;
83684;SDS011;73666;51.304;5.776;2024-03-23T12:49:12;2.60;;;0.60;;
83684;SDS011;73666;51.304;5.776;2024-03-23T12:54:13;1.70;;;0.80;;
83684;SDS011;73666;51.304;5.776;2024-03-23T12:59:14;2.28;;;0.63;;
83684;SDS011;73666;51.304;5.776;2024-03-23T13:04:15;2.20;;;0.50;;
83684;SDS011;73666;51.304;5.776;2024-03-23T13:09:16;0.82;;;0.20;;
83684;SDS011;73666;51.304;5.776;2024-03-23T13:14:17;2.10;;;0.20;;
83684;SDS011;73666;51.304;5.776;2024-03-23T13:19:18;0.55;;;0.17;;
83684;SDS011;73666;51.304;5.776;2024-03-23T13:24:23;0.45;;;0.20;;
83684;SDS011;73666;51.304;5.776;2024-03-23T13:29:27;1.27;;;0.30;;
83684;SDS011;73666;51.304;5.776;2024-03-23T13:34:28;1.10;;;0.20;;
83684;SDS011;73666;51.304;5.776;2024-03-23T13:39:30;1.67;;;0.30;;
83684;SDS011;73666;51.304;5.776;2024-03-23T13:44:32;1.35;;;0.47;;
83684;SDS011;73666;51.304;5.776;2024-03-23T13:49:33;1.23;;;0.47;;
83684;SDS011;73666;51.304;5.776;2024-03-23T13:54:33;2.05;;;0.45;;
83684;SDS011;73666;51.304;5.776;2024-03-23T13:59:34;1.77;;;0.50;;
83684;SDS011;73666;51.304;5.776;2024-03-23T14:04:35;0.75;;;0.30;;
83684;SDS011;73666;51.304;5.776;2024-03-23T14:09:38;0.80;;;0.30;;
83684;SDS011;73666;51.304;5.776;2024-03-23T14:14:39;0.75;;;0.40;;
83684;SDS011;73666;51.304;5.776;2024-03-23T14:19:39;2.38;;;0.57;;
83684;SDS011;73666;51.304;5.776;2024-03-23T14:24:40;3.58;;;0.63;;
83684;SDS011;73666;51.304;5.776;2024-03-23T14:29:41;2.03;;;0.40;;
83684;SDS011;73666;51.304;5.776;2024-03-23T14:34:41;1.52;;;0.60;;
83684;SDS011;73666;51.304;5.776;2024-03-23T14:39:42;0.93;;;0.63;;
83684;SDS011;73666;51.304;5.776;2024-03-23T14:44:44;2.35;;;0.52;;
83684;SDS011;73666;51.304;5.776;2024-03-23T14:49:45;1.50;;;0.52;;
83684;SDS011;73666;51.304;5.776;2024-03-23T14:54:47;1.98;;;0.32;;
83684;SDS011;73666;51.304;5.776;2024-03-23T14:59:47;0.20;;;0.10;;
83684;SDS011;73666;51.304;5.776;2024-03-23T15:04:48;0.93;;;0.17;;
83684;SDS011;73666;51.304;5.776;2024-03-23T15:09:49;1.40;;;0.15;;
83684;SDS011;73666;51.304;5.776;2024-03-23T15:14:49;0.40;;;0.10;;
83684;SDS011;73666;51.304;5.776;2024-03-23T15:19:50;2.00;;;0.40;;
83684;SDS011;73666;51.304;5.776;2024-03-23T15:24:51;1.27;;;0.30;;
83684;SDS011;73666;51.304;5.776;2024-03-23T15:29:52;0.68;;;0.50;;
83684;SDS011;73666;51.304;5.776;2024-03-23T15:34:52;0.85;;;0.40;;
83684;SDS011;73666;51.304;5.776;2024-03-23T15:39:53;1.55;;;0.47;;
83684;SDS011;73666;51.304;5.776;2024-03-23T15:44:54;1.42;;;0.75;;
83684;SDS011;73666;51.304;5.776;2024-03-23T15:49:54;0.73;;;0.50;;
83684;SDS011;73666;51.304;5.776;2024-03-23T15:54:56;1.63;;;0.35;;
83684;SDS011;73666;51.304;5.776;2024-03-23T15:59:58;3.70;;;0.50;;
83684;SDS011;73666;51.304;5.776;2024-03-23T16:04:58;0.95;;;0.70;;
83684;SDS011;73666;51.304;5.776;2024-03-23T16:10:03;1.98;;;0.38;;
83684;SDS011;73666;51.304;5.776;2024-03-23T16:15:08;1.92;;;0.45;;
83684;SDS011;73666;51.304;5.776;2024-03-23T16:20:09;0.63;;;0.50;;
83684;SDS011;73666;51.304;5.776;2024-03-23T16:25:10;2.22;;;0.40;;
83684;SDS011;73666;51.304;5.776;2024-03-23T16:30:11;0.80;;;0.10;;
83684;SDS011;73666;51.304;5.776;2024-03-23T16:35:13;3.03;;;0.43;;
83684;SDS011;73666;51.304;5.776;2024-03-23T16:40:14;0.20;;;0.10;;
83684;SDS011;73666;51.304;5.776;2024-03-23T16:45:15;0.50;;;0.17;;
83684;SDS011;73666;51.304;5.776;2024-03-23T16:50:17;3.22;;;0.68;;
83684;SDS011;73666;51.304;5.776;2024-03-23T16:55:17;5.85;;;0.80;;
83684;SDS011;73666;51.304;5.776;2024-03-23T17:00:18;3.60;;;0.40;;
83684;SDS011;73666;51.304;5.776;2024-03-23T17:05:19;1.70;;;0.50;;
83684;SDS011;73666;51.304;5.776;2024-03-23T17:10:22;0.25;;;0.10;;
83684;SDS011;73666;51.304;5.776;2024-03-23T17:15:24;1.55;;;0.38;;
83684;SDS011;73666;51.304;5.776;2024-03-23T17:20:24;1.23;;;0.10;;
83684;SDS011;73666;51.304;5.776;2024-03-23T17:25:25;0.50;;;0.28;;
83684;SDS011;73666;51.304;5.776;2024-03-23T17:30:26;2.33;;;0.28;;
83684;SDS011;73666;51.304;5.776;2024-03-23T17:35:26;0.70;;;0.50;;
83684;SDS011;73666;51.304;5.776;2024-03-23T17:40:27;0.00;;;0.00;;
83684;SDS011;73666;51.304;5.776;2024-03-23T17:45:28;1.88;;;0.30;;
83684;SDS011;73666;51.304;5.776;2024-03-23T17:50:29;0.50;;;0.40;;
83684;SDS011;73666;51.304;5.776;2024-03-23T17:55:29;1.25;;;0.20;;
83684;SDS011;73666;51.304;5.776;2024-03-23T18:00:30;2.25;;;0.47;;
83684;SDS011;73666;51.304;5.776;2024-03-23T18:05:31;0.98;;;0.52;;
83684;SDS011;73666;51.304;5.776;2024-03-23T18:10:34;0.85;;;0.63;;
83684;SDS011;73666;51.304;5.776;2024-03-23T18:15:36;2.80;;;0.60;;
83684;SDS011;73666;51.304;5.776;2024-03-23T18:20:36;1.40;;;0.65;;
83684;SDS011;73666;51.304;5.776;2024-03-23T18:25:37;2.47;;;1.25;;
83684;SDS011;73666;51.304;5.776;2024-03-23T18:30:38;3.30;;;1.40;;
83684;SDS011;73666;51.304;5.776;2024-03-23T18:35:39;0.98;;;0.50;;
83684;SDS011;73666;51.304;5.776;2024-03-23T18:40:43;1.98;;;1.05;;
83684;SDS011;73666;51.304;5.776;2024-03-23T18:45:47;3.10;;;1.38;;
83684;SDS011;73666;51.304;5.776;2024-03-23T18:50:49;2.20;;;2.00;;
83684;SDS011;73666;51.304;5.776;2024-03-23T18:55:53;2.00;;;1.00;;
83684;SDS011;73666;51.304;5.776;2024-03-23T19:00:56;5.25;;;1.95;;
83684;SDS011;73666;51.304;5.776;2024-03-23T19:05:58;1.30;;;1.08;;
83684;SDS011;73666;51.304;5.776;2024-03-23T19:16:01;3.17;;;1.00;;
83684;SDS011;73666;51.304;5.776;2024-03-23T19:21:04;1.83;;;0.80;;
83684;SDS011;73666;51.304;5.776;2024-03-23T19:26:05;1.98;;;1.00;;
83684;SDS011;73666;51.304;5.776;2024-03-23T19:31:05;4.25;;;1.00;;
83684;SDS011;73666;51.304;5.776;2024-03-23T19:36:07;1.50;;;1.13;;
83684;SDS011;73666;51.304;5.776;2024-03-23T19:41:08;2.83;;;1.10;;
83684;SDS011;73666;51.304;5.776;2024-03-23T19:46:09;1.92;;;0.95;;
83684;SDS011;73666;51.304;5.776;2024-03-23T19:51:09;3.45;;;1.27;;
83684;SDS011;73666;51.304;5.776;2024-03-23T19:56:10;4.00;;;1.33;;
83684;SDS011;73666;51.304;5.776;2024-03-23T20:01:15;4.65;;;2.33;;
83684;SDS011;73666;51.304;5.776;2024-03-23T20:06:17;3.03;;;1.90;;
83684;SDS011;73666;51.304;5.776;2024-03-23T20:11:24;6.28;;;1.60;;
83684;SDS011;73666;51.304;5.776;2024-03-23T20:16:25;2.90;;;2.10;;
83684;SDS011;73666;51.304;5.776;2024-03-23T20:21:26;3.83;;;2.03;;
83684;SDS011;73666;51.304;5.776;2024-03-23T20:26:27;2.72;;;1.45;;
83684;SDS011;73666;51.304;5.776;2024-03-23T20:31:27;5.03;;;1.95;;
83684;SDS011;73666;51.304;5.776;2024-03-23T20:36:28;3.80;;;1.98;;
83684;SDS011;73666;51.304;5.776;2024-03-23T20:41:29;3.00;;;1.80;;
83684;SDS011;73666;51.304;5.776;2024-03-23T20:46:30;7.72;;;2.03;;
83684;SDS011;73666;51.304;5.776;2024-03-23T20:51:31;2.10;;;1.50;;
83684;SDS011;73666;51.304;5.776;2024-03-23T20:56:32;2.97;;;1.70;;
83684;SDS011;73666;51.304;5.776;2024-03-23T21:01:33;2.38;;;1.70;;
83684;SDS011;73666;51.304;5.776;2024-03-23T21:06:33;3.05;;;1.30;;
83684;SDS011;73666;51.304;5.776;2024-03-23T21:11:34;2.05;;;1.35;;
83684;SDS011;73666;51.304;5.776;2024-03-23T21:16:35;1.20;;;0.65;;
83684;SDS011;73666;51.304;5.776;2024-03-23T21:21:35;1.08;;;0.50;;
83684;SDS011;73666;51.304;5.776;2024-03-23T21:26:36;3.50;;;1.05;;
83684;SDS011;73666;51.304;5.776;2024-03-23T21:31:37;1.58;;;0.50;;
83684;SDS011;73666;51.304;5.776;2024-03-23T21:36:38;2.65;;;0.93;;
83684;SDS011;73666;51.304;5.776;2024-03-23T21:41:39;3.67;;;0.82;;
83684;SDS011;73666;51.304;5.776;2024-03-23T21:46:40;1.00;;;0.90;;
83684;SDS011;73666;51.304;5.776;2024-03-23T21:51:40;1.75;;;0.80;;
83684;SDS011;73666;51.304;5.776;2024-03-23T21:56:41;2.50;;;0.98;;
83684;SDS011;73666;51.304;5.776;2024-03-23T22:01:42;1.75;;;1.00;;
83684;SDS011;73666;51.304;5.776;2024-03-23T22:06:43;1.73;;;0.90;;
83684;SDS011;73666;51.304;5.776;2024-03-23T22:11:45;1.60;;;1.02;;
83684;SDS011;73666;51.304;5.776;2024-03-23T22:16:45;4.93;;;1.13;;
83684;SDS011;73666;51.304;5.776;2024-03-23T22:21:46;1.88;;;0.73;;
83684;SDS011;73666;51.304;5.776;2024-03-23T22:26:47;2.40;;;1.08;;
83684;SDS011;73666;51.304;5.776;2024-03-23T22:31:51;3.47;;;0.88;;
83684;SDS011;73666;51.304;5.776;2024-03-23T22:36:52;1.20;;;0.77;;
83684;SDS011;73666;51.304;5.776;2024-03-23T22:41:53;2.72;;;0.85;;
83684;SDS011;73666;51.304;5.776;2024-03-23T22:46:54;2.10;;;1.13;;
83684;SDS011;73666;51.304;5.776;2024-03-23T22:51:55;2.72;;;1.42;;
83684;SDS011;73666;51.304;5.776;2024-03-23T22:56:56;3.38;;;1.38;;
83684;SDS011;73666;51.304;5.776;2024-03-23T23:01:57;3.30;;;1.25;;
83684;SDS011;73666;51.304;5.776;2024-03-23T23:06:57;2.10;;;1.00;;
83684;SDS011;73666;51.304;5.776;2024-03-23T23:11:58;3.20;;;1.52;;
83684;SDS011;73666;51.304;5.776;2024-03-23T23:16:59;3.05;;;1.50;;
83684;SDS011;73666;51.304;5.776;2024-03-23T23:21:59;2.65;;;1.60;;
83684;SDS011;73666;51.304;5.776;2024-03-23T23:27:00;2.20;;;1.50;;
83684;SDS011;73666;51.304;5.776;2024-03-23T23:32:02;4.25;;;1.80;;
83684;SDS011;73666;51.304;5.776;2024-03-23T23:37:03;1.67;;;0.93;;
83684;SDS011;73666;51.304;5.776;2024-03-23T23:42:04;3.28;;;1.92;;
83684;SDS011;73666;51.304;5.776;2024-03-23T23:47:05;2.53;;;1.20;;
83684;SDS011;73666;51.304;5.776;2024-03-23T23:52:06;3.40;;;1.98;;
83684;SDS011;73666;51.304;5.776;2024-03-23T23:57:06;3.80;;;1.98;;
